Time;durP1;ratioP1;P1;durP2;ratioP2;P2;SDS_P1;SDS_P2;PMS_P1;PMS_P2;Temp;Humidity;BMP_temperature;BMP_pressure;BME280_temperature;BME280_humidity;BME280_pressure;Samples;Min_cycle;Max_cycle;Signal;HPM_P1;HPM_P2
2021/11/03 00:00:47;;;;;;;27.15;13.88;;;;;;;4.03;94.39;99993.88;5012200;28;20030;-45
2021/11/03 00:03:13;;;;;;;24.30;12.23;;;;;;;4.01;94.30;99994.06;5011423;28;20132;-49
2021/11/03 00:05:44;;;;;;;22.67;12.27;;;;;;;3.99;93.96;99996.03;5026994;28;20075;-50
2021/11/03 00:08:10;;;;;;;25.77;12.63;;;;;;;4.05;94.96;100000.69;5029952;28;20033;-50
2021/11/03 00:10:35;;;;;;;26.02;13.38;;;;;;;4.17;95.10;99993.28;5026876;28;20361;-47
2021/11/03 00:13:02;;;;;;;24.40;12.48;;;;;;;4.24;95.46;100001.44;5031897;28;20036;-47
2021/11/03 00:15:27;;;;;;;25.60;12.38;;;;;;;4.30;95.82;99996.31;5023816;28;20037;-47
2021/11/03 00:17:52;;;;;;;24.65;12.88;;;;;;;4.36;95.82;99997.50;5010899;28;20053;-47
2021/11/03 00:20:18;;;;;;;29.02;13.10;;;;;;;4.35;96.19;99995.84;5012238;28;20037;-48
2021/11/03 00:22:43;;;;;;;31.05;15.48;;;;;;;4.47;96.16;99999.84;5011688;28;20116;-48
2021/11/03 00:25:09;;;;;;;21.65;13.15;;;;;;;4.59;96.25;100000.38;5011261;28;20029;-49
2021/11/03 00:27:34;;;;;;;23.73;12.57;;;;;;;4.56;96.06;100004.19;5020722;28;20041;-48
2021/11/03 00:30:00;;;;;;;18.83;11.63;;;;;;;4.56;95.74;100006.88;5030301;28;20048;-48
2021/11/03 00:32:25;;;;;;;32.72;13.48;;;;;;;4.61;95.72;100017.06;5031738;28;20108;-47
2021/11/03 00:34:50;;;;;;;25.88;12.30;;;;;;;4.66;95.68;100008.53;5030267;28;20109;-45
2021/11/03 00:37:16;;;;;;;21.05;12.07;;;;;;;4.84;94.66;100019.88;5031473;28;20509;-49
2021/11/03 00:39:42;;;;;;;20.02;10.93;;;;;;;4.91;93.55;100023.56;5031226;28;20465;-45
2021/11/03 00:42:08;;;;;;;28.33;11.52;;;;;;;4.85;93.68;100029.56;5013508;28;20066;-45
2021/11/03 00:44:34;;;;;;;31.77;13.43;;;;;;;4.81;94.12;100028.22;5013359;28;20037;-47
2021/11/03 00:47:00;;;;;;;23.08;12.05;;;;;;;4.79;94.44;100025.75;5030051;28;20029;-47
2021/11/03 00:49:25;;;;;;;28.45;13.70;;;;;;;4.81;94.57;100028.22;5031595;28;20048;-46
2021/11/03 00:51:50;;;;;;;27.73;12.55;;;;;;;4.79;94.65;100023.06;5031106;28;20091;-46
2021/11/03 00:54:16;;;;;;;38.38;14.90;;;;;;;4.86;95.05;100031.22;5027844;28;20515;-46
2021/11/03 00:56:41;;;;;;;34.13;14.65;;;;;;;4.91;95.48;100022.75;5030931;28;20041;-46
2021/11/03 00:59:07;;;;;;;32.17;15.73;;;;;;;4.99;95.63;100020.09;5030926;28;20354;-47
2021/11/03 01:01:32;;;;;;;32.15;15.15;;;;;;;5.05;95.73;100022.94;5030776;28;20116;-44
2021/11/03 01:03:58;;;;;;;39.15;15.95;;;;;;;5.10;96.16;100018.91;5028873;28;20030;-47
2021/11/03 01:06:23;;;;;;;27.23;14.93;;;;;;;5.16;95.67;100020.91;5011126;28;20022;-45
2021/11/03 01:08:48;;;;;;;33.03;15.60;;;;;;;5.15;96.07;100021.91;5009808;28;20033;-46
2021/11/03 01:11:14;;;;;;;34.83;17.02;;;;;;;5.16;96.02;100026.25;5021657;28;20029;-46
2021/11/03 01:13:39;;;;;;;30.52;16.70;;;;;;;5.21;96.11;100023.91;5030760;28;20029;-46
2021/11/03 01:16:05;;;;;;;35.47;17.02;;;;;;;5.27;96.22;100024.09;5027788;28;20369;-47
2021/11/03 01:18:32;;;;;;;28.80;15.45;;;;;;;5.33;96.58;100024.41;5010877;28;20469;-46
2021/11/03 01:20:58;;;;;;;34.17;16.85;;;;;;;5.37;96.37;100018.59;5011184;28;20022;-45
2021/11/03 01:23:24;;;;;;;30.15;16.05;;;;;;;5.41;96.42;100008.41;5010545;28;20449;-52
2021/11/03 01:25:51;;;;;;;36.38;16.23;;;;;;;5.39;96.52;100021.91;5025782;28;20025;-52
2021/11/03 01:28:17;;;;;;;34.13;16.02;;;;;;;5.38;96.27;100017.56;5015593;28;20061;-51
2021/11/03 01:30:45;;;;;;;36.45;16.67;;;;;;;5.39;96.09;100027.22;5030023;28;20025;-52
2021/11/03 01:33:11;;;;;;;33.17;15.57;;;;;;;5.43;96.20;100022.41;5030194;28;20109;-54
2021/11/03 01:35:36;;;;;;;32.58;16.30;;;;;;;5.61;96.14;100020.38;5030029;28;20032;-52
2021/11/03 01:38:02;;;;;;;30.95;16.08;;;;;;;5.71;96.35;100020.16;5030081;28;20029;-50
2021/11/03 01:40:32;;;;;;;32.03;16.85;;;;;;;5.69;96.27;100022.19;5023533;28;20116;-49
2021/11/03 01:42:58;;;;;;;47.67;19.23;;;;;;;5.66;96.24;100017.19;5013391;28;20048;-46
2021/11/03 01:45:25;;;;;;;40.45;18.95;;;;;;;5.67;96.49;100022.34;5013439;28;20385;-48
2021/11/03 01:47:58;;;;;;;39.20;16.80;;;;;;;5.72;96.44;100021.84;5033061;28;20032;-50
2021/11/03 01:50:36;;;;;;;33.08;16.65;;;;;;;5.76;96.60;100028.50;5033000;28;20310;-51
2021/11/03 01:53:01;;;;;;;37.13;15.05;;;;;;;5.79;96.85;100022.81;5013594;28;20370;-52
2021/11/03 01:55:27;;;;;;;42.75;18.83;;;;;;;5.82;97.00;100017.16;5013409;28;20055;-54
2021/11/03 01:57:57;;;;;;;53.63;18.60;;;;;;;5.79;97.23;100014.81;5014513;28;20041;-50
2021/11/03 02:00:26;;;;;;;39.28;18.27;;;;;;;5.82;97.38;100011.81;5012226;28;20033;-52
2021/11/03 02:02:55;;;;;;;39.65;17.73;;;;;;;5.85;97.31;100014.13;5030673;28;20381;-50
2021/11/03 02:05:21;;;;;;;40.40;18.98;;;;;;;5.88;97.59;100010.28;5031893;28;20027;-52
2021/11/03 02:07:49;;;;;;;33.33;15.68;;;;;;;5.88;97.60;100005.78;5014303;28;20037;-54
2021/11/03 02:10:14;;;;;;;34.63;15.30;;;;;;;5.90;97.60;100008.28;5011895;28;20440;-53
2021/11/03 02:12:40;;;;;;;33.35;17.17;;;;;;;5.90;97.67;100011.78;5013039;28;20125;-53
2021/11/03 02:15:06;;;;;;;43.38;18.33;;;;;;;5.90;97.32;99998.44;5012896;28;20026;-51
2021/11/03 02:17:31;;;;;;;45.28;19.83;;;;;;;5.89;97.62;100004.75;5011464;28;20315;-51
2021/11/03 02:19:59;;;;;;;40.97;18.60;;;;;;;5.90;97.66;100009.13;5012732;28;20037;-49
2021/11/03 02:22:43;;;;;;;46.17;20.42;;;;;;;5.93;97.54;100000.78;5012578;28;20481;-49
2021/11/03 02:25:10;;;;;;;51.15;21.48;;;;;;;5.95;97.66;100003.31;5012670;28;20549;-49
2021/11/03 02:27:39;;;;;;;54.13;23.77;;;;;;;5.96;97.80;99998.78;5012653;28;20037;-48
2021/11/03 02:30:07;;;;;;;61.15;24.35;;;;;;;5.99;97.80;99998.44;5032357;28;20439;-48
2021/11/03 02:32:33;;;;;;;54.90;21.83;;;;;;;6.04;97.91;100004.91;5032249;28;20333;-48
2021/11/03 02:34:59;;;;;;;52.03;22.60;;;;;;;6.07;97.71;99998.41;5032209;28;20423;-47
2021/11/03 02:37:27;;;;;;;53.70;24.23;;;;;;;6.06;97.80;100002.09;5032239;28;20091;-46
2021/11/03 02:40:27;;;;;;;52.25;24.08;;;;;;;6.06;97.73;99994.91;5012623;28;20042;-46
2021/11/03 02:43:07;;;;;;;56.38;23.73;;;;;;;6.04;97.68;99993.41;5005299;28;20449;-48
2021/11/03 02:45:55;;;;;;;51.55;23.05;;;;;;;6.05;97.82;99989.72;5011241;28;20038;-49
2021/11/03 02:48:23;;;;;;;52.50;23.15;;;;;;;6.03;97.68;99991.72;5013136;28;20089;-50
2021/11/03 02:50:57;;;;;;;50.33;23.15;;;;;;;5.99;97.55;99985.09;5012397;28;20033;-47
2021/11/03 02:53:24;;;;;;;52.58;21.77;;;;;;;5.99;97.54;99983.25;5013039;28;20022;-47
2021/11/03 02:55:49;;;;;;;53.55;23.90;;;;;;;6.00;97.39;99981.41;5013594;28;20026;-46
2021/11/03 02:58:14;;;;;;;55.42;23.65;;;;;;;5.99;97.34;99985.09;5021573;28;20056;-47
2021/11/03 03:00:40;;;;;;;60.55;24.33;;;;;;;5.93;97.29;99981.25;5036273;28;20026;-47
2021/11/03 03:03:05;;;;;;;57.00;24.88;;;;;;;5.89;97.00;99978.06;5033268;28;20031;-47
2021/11/03 03:05:31;;;;;;;49.05;22.73;;;;;;;5.88;97.20;99978.25;5032103;28;20029;-49
2021/11/03 03:07:56;;;;;;;54.22;24.45;;;;;;;5.86;97.16;99978.41;5042994;28;20064;-47
2021/11/03 03:10:21;;;;;;;53.65;24.38;;;;;;;5.82;97.09;99969.09;5017020;28;20030;-46
2021/11/03 03:12:47;;;;;;;54.75;24.00;;;;;;;5.81;97.41;99975.41;5012168;28;20038;-45
2021/11/03 03:15:12;;;;;;;53.55;24.17;;;;;;;5.77;97.13;99968.78;5011146;28;20041;-48
2021/11/03 03:17:37;;;;;;;60.08;25.98;;;;;;;5.73;97.02;99973.59;5012404;28;20100;-47
2021/11/03 03:20:05;;;;;;;61.28;26.50;;;;;;;5.70;97.38;99970.47;5012318;28;20073;-48
2021/11/03 03:22:30;;;;;;;62.42;27.38;;;;;;;5.66;97.33;99969.13;5012187;28;20111;-46
2021/11/03 03:24:55;;;;;;;74.20;28.50;;;;;;;5.61;97.43;99968.81;5031081;28;20038;-47
2021/11/03 03:27:21;;;;;;;63.25;27.65;;;;;;;5.53;97.20;99969.69;5031922;28;20388;-47
2021/11/03 03:29:46;;;;;;;62.30;27.30;;;;;;;5.44;97.13;99968.03;5022804;28;20034;-46
2021/11/03 03:32:12;;;;;;;71.43;28.58;;;;;;;5.38;97.03;99974.06;5010983;28;20440;-47
2021/11/03 03:34:37;;;;;;;71.63;29.40;;;;;;;5.29;96.87;99967.88;5012105;28;20319;-47
2021/11/03 03:37:03;;;;;;;63.20;26.63;;;;;;;5.23;96.68;99963.22;5031278;28;20117;-46
2021/11/03 03:39:29;;;;;;;70.55;27.92;;;;;;;5.17;96.62;99970.06;5031982;28;20099;-45
2021/11/03 03:42:10;;;;;;;76.13;30.52;;;;;;;5.15;96.61;99961.41;5031749;28;20518;-49
2021/11/03 03:44:36;;;;;;;74.38;31.10;;;;;;;5.13;96.86;99962.56;5031517;28;20064;-47
2021/11/03 03:47:01;;;;;;;72.85;29.25;;;;;;;5.03;96.96;99963.59;5030780;28;20069;-48
2021/11/03 03:49:27;;;;;;;64.68;28.52;;;;;;;4.96;96.96;99967.09;5025028;28;20034;-47
2021/11/03 03:51:53;;;;;;;74.35;29.88;;;;;;;4.91;96.70;99956.91;5012591;28;20096;-45
2021/11/03 03:54:18;;;;;;;76.05;30.13;;;;;;;4.89;96.77;99966.09;5024310;28;20041;-45
2021/11/03 03:56:43;;;;;;;71.40;29.42;;;;;;;4.88;96.84;99969.75;5031513;28;20025;-48
2021/11/03 03:59:09;;;;;;;81.50;31.92;;;;;;;4.85;96.67;99970.94;5033224;28;20112;-45
2021/11/03 04:01:34;;;;;;;83.97;31.58;;;;;;;4.82;97.06;99977.41;5035140;28;20026;-45
2021/11/03 04:04:00;;;;;;;80.22;31.33;;;;;;;4.78;97.01;99975.25;5029330;28;20079;-47
2021/11/03 04:06:26;;;;;;;82.50;32.80;;;;;;;4.76;97.12;99979.91;5015429;28;20106;-46
2021/11/03 04:08:51;;;;;;;82.25;32.92;;;;;;;4.74;97.21;99992.56;5015120;28;20040;-46
2021/11/03 04:11:17;;;;;;;90.57;34.28;;;;;;;4.73;97.31;99990.91;5027521;28;20065;-47
2021/11/03 04:13:42;;;;;;;85.70;34.03;;;;;;;4.69;97.38;99992.25;5035011;28;20465;-45
2021/11/03 04:16:08;;;;;;;83.60;34.70;;;;;;;4.65;97.33;99997.03;5034859;28;20021;-49
2021/11/03 04:18:34;;;;;;;91.53;34.72;;;;;;;4.65;97.25;99997.03;5026780;28;20481;-47
2021/11/03 04:21:00;;;;;;;82.05;33.25;;;;;;;4.62;97.01;100000.88;5014995;28;20029;-47
2021/11/03 04:23:25;;;;;;;86.72;34.67;;;;;;;4.61;97.16;100001.88;5014741;28;20030;-48
2021/11/03 04:25:50;;;;;;;77.78;31.83;;;;;;;4.56;97.28;99998.88;5014992;28;20029;-45
2021/11/03 04:28:16;;;;;;;75.95;30.98;;;;;;;4.52;97.23;100002.84;5013956;28;20106;-45
2021/11/03 04:30:42;;;;;;;74.07;32.08;;;;;;;4.47;97.02;100007.00;5014759;28;20485;-47
2021/11/03 04:33:07;;;;;;;67.63;29.15;;;;;;;4.43;96.85;100009.16;5027302;28;20032;-46
2021/11/03 04:35:33;;;;;;;65.70;28.05;;;;;;;4.39;96.65;100015.81;5033264;28;20090;-47
2021/11/03 04:37:59;;;;;;;67.43;27.60;;;;;;;4.35;96.65;100012.66;5034219;28;20032;-47
2021/11/03 04:40:27;;;;;;;75.65;30.90;;;;;;;4.30;96.43;100025.63;5023325;28;20451;-48
2021/11/03 04:42:53;;;;;;;82.45;33.50;;;;;;;4.31;96.39;100024.59;5014695;28;20022;-46
2021/11/03 04:45:19;;;;;;;77.43;30.75;;;;;;;4.29;96.82;100021.28;5013472;28;20030;-49
2021/11/03 04:47:45;;;;;;;78.60;32.15;;;;;;;4.26;97.13;100026.91;5014589;28;20034;-48
2021/11/03 04:50:15;;;;;;;74.53;31.77;;;;;;;4.24;96.90;100025.41;5014394;28;20091;-47
2021/11/03 04:52:41;;;;;;;77.90;33.95;;;;;;;4.21;96.68;100026.56;5022384;28;20044;-49
2021/11/03 04:55:06;;;;;;;78.57;30.70;;;;;;;4.16;96.90;100021.75;5034284;28;20033;-44
2021/11/03 04:57:32;;;;;;;76.82;30.85;;;;;;;4.15;96.90;100027.22;5034341;28;20056;-45
2021/11/03 05:00:00;;;;;;;72.60;31.13;;;;;;;4.10;96.66;100022.38;5030109;28;20365;-49
2021/11/03 05:02:25;;;;;;;72.68;30.38;;;;;;;4.10;96.88;100026.88;5015297;28;20030;-47
2021/11/03 05:04:51;;;;;;;78.47;31.92;;;;;;;4.09;96.98;100027.88;5012831;28;20029;-47
2021/11/03 05:07:16;;;;;;;82.07;31.58;;;;;;;4.08;96.50;100026.19;5014122;28;20036;-49
2021/11/03 05:09:42;;;;;;;74.80;31.23;;;;;;;4.06;97.05;100029.03;5014892;28;20061;-46
2021/11/03 05:12:08;;;;;;;79.03;31.63;;;;;;;4.03;96.60;100040.00;5033451;28;20037;-50
2021/11/03 05:14:33;;;;;;;69.53;30.02;;;;;;;4.01;96.71;100033.16;5025208;28;20036;-45
2021/11/03 05:16:58;;;;;;;77.43;30.90;;;;;;;3.98;96.68;100036.97;5030268;28;20030;-47
2021/11/03 05:19:27;;;;;;;78.00;32.45;;;;;;;3.94;96.70;100032.94;5014726;28;20145;-49
2021/11/03 05:21:53;;;;;;;;;;;;;;;3.93;96.90;100034.78;5015207;28;20092;-46
2021/11/03 05:24:19;;;;;;;63.53;26.73;;;;;;;3.90;96.48;100036.94;5013719;28;19905;-48
2021/11/03 05:26:45;;;;;;;69.50;30.10;;;;;;;3.87;96.42;100034.56;5031425;28;20120;-45
2021/11/03 05:29:11;;;;;;;70.43;30.55;;;;;;;3.84;96.28;100035.72;5032346;28;20563;-48
2021/11/03 05:31:37;;;;;;;73.22;29.95;;;;;;;3.82;96.70;100032.41;5033953;28;20033;-48
2021/11/03 05:34:02;;;;;;;87.75;32.05;;;;;;;3.81;96.86;100038.69;5033396;28;20448;-49
2021/11/03 05:36:29;;;;;;;55.35;26.33;;;;;;;3.80;96.92;100045.03;5033921;28;20137;-46
2021/11/03 05:38:55;;;;;;;56.60;25.90;;;;;;;3.77;96.10;100044.50;5033797;28;20441;-47
2021/11/03 05:41:20;;;;;;;61.22;26.75;;;;;;;3.70;96.00;100034.47;5019830;28;20481;-46
2021/11/03 05:43:46;;;;;;;59.97;25.98;;;;;;;3.66;96.13;100042.94;5015765;28;20182;-46
2021/11/03 05:46:16;;;;;;;55.22;24.60;;;;;;;3.63;96.01;100044.06;5033707;28;20112;-47
2021/11/03 05:48:45;;;;;;;62.85;25.77;;;;;;;3.65;96.54;100046.59;5033284;28;20057;-47
2021/11/03 05:51:10;;;;;;;75.65;29.00;;;;;;;3.68;96.71;100040.94;5029831;28;20084;-50
2021/11/03 05:53:38;;;;;;;82.40;29.75;;;;;;;3.66;96.33;100043.78;5033420;28;20025;-46
2021/11/03 05:56:06;;;;;;;86.87;33.47;;;;;;;3.72;97.30;100042.31;5031946;28;20029;-47
2021/11/03 05:58:32;;;;;;;95.43;33.53;;;;;;;3.80;97.24;100044.19;5023080;28;20048;-49
2021/11/03 06:00:57;;;;;;;98.28;38.20;;;;;;;3.85;97.23;100041.91;5014553;28;20084;-48
2021/11/03 06:03:22;;;;;;;84.35;32.58;;;;;;;3.86;97.77;100051.53;5013392;28;20034;-46
2021/11/03 06:05:48;;;;;;;88.28;33.13;;;;;;;3.84;97.86;100053.53;5013411;28;20076;-47
2021/11/03 06:08:13;;;;;;;77.63;31.52;;;;;;;3.82;97.58;100047.50;5015819;28;20079;-47
2021/11/03 06:10:40;;;;;;;76.57;31.38;;;;;;;3.81;97.43;100048.50;5035358;28;20021;-48
2021/11/03 06:13:06;;;;;;;78.22;32.40;;;;;;;3.78;97.05;100047.00;5022358;28;20025;-46
2021/11/03 06:15:33;;;;;;;70.53;30.00;;;;;;;3.75;96.72;100044.66;5032013;28;20483;-49
2021/11/03 06:17:59;;;;;;;69.57;28.35;;;;;;;3.72;96.78;100045.81;5028553;28;20024;-47
2021/11/03 06:20:25;;;;;;;71.72;28.98;;;;;;;3.70;96.49;100045.13;5031582;28;20044;-46
2021/11/03 06:22:51;;;;;;;70.03;28.70;;;;;;;3.69;96.61;100047.97;5011789;28;20026;-47
2021/11/03 06:25:17;;;;;;;65.55;28.67;;;;;;;3.71;96.75;100044.16;5028493;28;20042;-47
2021/11/03 06:27:44;;;;;;;68.32;30.42;;;;;;;3.74;96.61;100046.50;5032445;28;20025;-47
2021/11/03 06:30:14;;;;;;;68.45;30.70;;;;;;;3.77;96.88;100047.19;5029805;28;20499;-47
2021/11/03 06:32:39;;;;;;;67.80;29.17;;;;;;;3.76;96.24;100040.16;5028904;28;20374;-49
2021/11/03 06:35:06;;;;;;;71.22;30.45;;;;;;;3.73;96.39;100043.97;5030971;28;20032;-49
2021/11/03 06:37:31;;;;;;;74.65;30.67;;;;;;;3.72;96.53;100048.47;5029107;28;20037;-47
2021/11/03 06:39:57;;;;;;;79.72;32.58;;;;;;;3.71;96.47;100044.16;5030505;28;20108;-47
2021/11/03 06:42:24;;;;;;;73.03;31.65;;;;;;;3.71;96.33;100043.28;5012518;28;20133;-45
2021/11/03 06:44:49;;;;;;;72.50;32.20;;;;;;;3.71;96.69;100046.81;5026725;28;20109;-48
2021/11/03 06:47:14;;;;;;;76.28;31.10;;;;;;;3.67;96.62;100050.75;5025085;28;20120;-47
2021/11/03 06:49:40;;;;;;;82.25;32.28;;;;;;;3.67;96.86;100060.59;5012311;28;20088;-47
2021/11/03 06:52:06;;;;;;;78.97;33.22;;;;;;;3.66;96.68;100045.59;5025474;28;20034;-50
2021/11/03 06:54:32;;;;;;;79.43;32.35;;;;;;;3.67;97.00;100052.59;5032613;28;20492;-48
2021/11/03 06:56:58;;;;;;;85.47;33.58;;;;;;;3.66;96.43;100049.09;5025460;28;20030;-48
2021/11/03 06:59:23;;;;;;;82.00;34.58;;;;;;;3.70;96.44;100052.28;5032199;28;20025;-48
2021/11/03 07:01:49;;;;;;;75.35;32.90;;;;;;;3.72;97.11;100050.31;5032261;28;20029;-49
2021/11/03 07:04:14;;;;;;;81.95;33.75;;;;;;;3.74;97.06;100049.16;5032187;28;20041;-48
2021/11/03 07:06:40;;;;;;;73.30;31.10;;;;;;;3.71;96.72;100046.81;5032350;28;20083;-49
2021/11/03 07:09:05;;;;;;;70.72;31.33;;;;;;;3.72;96.84;100045.81;5031990;28;20041;-50
2021/11/03 07:11:32;;;;;;;82.57;33.47;;;;;;;3.77;96.60;100047.19;5031680;28;20040;-47
2021/11/03 07:13:57;;;;;;;81.00;34.47;;;;;;;3.80;97.30;100044.19;5030429;28;20032;-47
2021/11/03 07:16:23;;;;;;;73.07;32.03;;;;;;;3.80;96.91;100039.69;5029414;28;20034;-50
2021/11/03 07:18:49;;;;;;;69.38;29.70;;;;;;;3.83;97.16;100043.88;5029274;28;20159;-47
2021/11/03 07:21:14;;;;;;;75.32;33.55;;;;;;;3.87;96.57;100045.22;5027541;28;20060;-48
2021/11/03 07:23:39;;;;;;;80.22;32.97;;;;;;;3.91;96.81;100058.06;5026902;28;20033;-47
2021/11/03 07:26:05;;;;;;;91.60;38.58;;;;;;;4.00;96.51;100056.25;5031318;28;20108;-48
2021/11/03 07:28:30;;;;;;;82.20;36.55;;;;;;;4.04;96.63;100051.47;5024834;28;20447;-46
2021/11/03 07:30:55;;;;;;;89.40;33.35;;;;;;;4.07;96.50;100054.63;5028037;28;20033;-47
2021/11/03 07:33:21;;;;;;;69.25;31.98;;;;;;;4.12;97.10;100055.00;5031913;28;20510;-49
2021/11/03 07:35:46;;;;;;;79.72;34.60;;;;;;;4.19;96.93;100063.19;5030085;28;20034;-47
2021/11/03 07:38:13;;;;;;;75.15;32.35;;;;;;;4.23;96.74;100066.38;5018786;28;20165;-50
2021/11/03 07:40:41;;;;;;;91.68;34.42;;;;;;;4.29;96.81;100066.56;5029607;28;20057;-46
2021/11/03 07:43:08;;;;;;;83.18;35.22;;;;;;;4.47;96.97;100069.13;5016810;28;20052;-49
2021/11/03 07:45:35;;;;;;;76.28;32.70;;;;;;;4.71;96.96;100064.84;5033985;28;20037;-48
2021/11/03 07:48:01;;;;;;;66.95;30.33;;;;;;;4.83;96.65;100066.22;5033290;28;20025;-46
2021/11/03 07:50:31;;;;;;;81.40;33.28;;;;;;;5.11;96.54;100072.09;5033534;28;20033;-47
2021/11/03 07:52:57;;;;;;;195.60;41.05;;;;;;;5.69;96.65;100067.59;5035123;28;20096;-48
2021/11/03 07:55:22;;;;;;;72.68;32.63;;;;;;;6.27;97.08;100074.47;5031017;28;20029;-47
2021/11/03 07:57:47;;;;;;;57.22;26.70;;;;;;;6.58;96.70;100069.16;5034822;28;20097;-50
2021/11/03 08:00:22;;;;;;;48.85;21.98;;;;;;;6.61;91.72;100073.31;5035133;28;20026;-46
2021/11/03 08:02:49;;;;;;;43.80;20.40;;;;;;;6.72;89.25;100067.56;5047529;28;20411;-49
2021/11/03 08:05:15;;;;;;;42.20;22.77;;;;;;;6.78;87.97;100066.03;5024725;28;20388;-46
2021/11/03 08:07:40;;;;;;;55.72;22.98;;;;;;;7.19;88.44;100071.13;5029503;28;20025;-49
2021/11/03 08:10:12;;;;;;;40.10;21.70;;;;;;;7.98;89.94;100076.94;5019998;28;20042;-48
2021/11/03 08:12:37;;;;;;;37.05;19.08;;;;;;;8.87;86.81;100084.88;5018884;28;20037;-47
2021/11/03 08:15:03;;;;;;;45.33;18.35;;;;;;;9.33;80.01;100084.53;5033759;28;20048;-47
2021/11/03 08:17:29;;;;;;;32.85;16.80;;;;;;;9.62;78.67;100093.47;5023155;28;20341;-48
2021/11/03 08:19:56;;;;;;;41.75;19.65;;;;;;;9.50;76.87;100090.47;5034656;28;20052;-46
2021/11/03 08:22:24;;;;;;;33.75;17.58;;;;;;;9.51;77.68;100092.16;5033590;28;20030;-46
2021/11/03 08:24:54;;;;;;;29.17;17.23;;;;;;;9.27;76.78;100090.69;5033983;28;20087;-47
2021/11/03 08:27:21;;;;;;;26.05;15.38;;;;;;;9.04;77.72;100095.41;5014990;28;20532;-48
2021/11/03 08:29:47;;;;;;;33.28;17.08;;;;;;;8.92;79.35;100105.78;5019252;28;20112;-47
2021/11/03 08:32:16;;;;;;;33.58;16.90;;;;;;;8.72;80.03;100102.91;5030446;28;20075;-45
2021/11/03 08:34:42;;;;;;;31.52;17.33;;;;;;;8.77;80.69;100105.84;5030390;28;20060;-47
2021/11/03 08:37:10;;;;;;;36.05;18.48;;;;;;;9.19;80.24;100101.56;5024594;28;20080;-46
2021/11/03 08:39:38;;;;;;;37.63;19.13;;;;;;;9.27;78.44;100101.44;5025110;28;20070;-46
2021/11/03 08:42:04;;;;;;;36.47;20.08;;;;;;;9.44;77.07;100102.81;5031303;28;20033;-48
2021/11/03 08:44:30;;;;;;;35.13;19.42;;;;;;;9.50;76.46;100105.75;5032761;28;20512;-46
2021/11/03 08:46:55;;;;;;;40.47;20.75;;;;;;;9.51;77.69;100112.81;5030247;28;20362;-47
2021/11/03 08:49:20;;;;;;;39.08;21.05;;;;;;;9.22;77.35;100109.22;5028767;28;20111;-45
2021/11/03 08:51:46;;;;;;;55.25;21.88;;;;;;;9.18;78.25;100110.63;5031800;28;20032;-47
2021/11/03 08:54:11;;;;;;;41.95;20.20;;;;;;;9.50;78.86;100111.13;5033079;28;20029;-46
2021/11/03 08:56:40;;;;;;;41.60;20.73;;;;;;;9.59;77.44;100115.38;5018341;28;20164;-46
2021/11/03 08:59:08;;;;;;;37.20;19.55;;;;;;;9.93;76.42;100111.91;5014399;28;20030;-49
2021/11/03 09:01:35;;;;;;;34.67;20.48;;;;;;;10.21;77.12;100111.06;5025065;28;20049;-45
2021/11/03 09:04:00;;;;;;;44.58;21.92;;;;;;;10.54;72.29;100120.19;5032138;28;20034;-49
2021/11/03 09:06:26;;;;;;;53.75;22.92;;;;;;;10.39;73.57;100115.94;5032211;28;20034;-45
2021/11/03 09:08:51;;;;;;;43.67;23.35;;;;;;;10.23;75.59;100123.28;5023755;28;20061;-46
2021/11/03 09:11:18;;;;;;;56.00;22.33;;;;;;;10.58;74.07;100125.97;5026323;28;20036;-49
2021/11/03 09:13:43;;;;;;;58.40;23.13;;;;;;;10.43;75.19;100128.00;5034199;28;20037;-47
2021/11/03 09:16:09;;;;;;;43.75;23.05;;;;;;;10.36;74.29;100129.81;5024492;28;20036;-45
2021/11/03 09:18:35;;;;;;;50.83;23.70;;;;;;;10.02;75.85;100126.03;5018732;28;20480;-47
2021/11/03 09:21:01;;;;;;;42.10;23.48;;;;;;;10.17;75.52;100134.84;5017564;28;20477;-49
2021/11/03 09:23:27;;;;;;;53.33;25.38;;;;;;;10.23;76.84;100134.03;5016304;28;20029;-47
2021/11/03 09:25:54;;;;;;;44.35;25.30;;;;;;;10.06;76.11;100132.69;5018312;28;20388;-46
2021/11/03 09:28:21;;;;;;;53.73;26.53;;;;;;;9.78;77.72;100138.03;5032952;28;20116;-49
2021/11/03 09:30:47;;;;;;;48.85;26.65;;;;;;;9.55;78.42;100136.38;5030774;28;20291;-48
2021/11/03 09:33:12;;;;;;;49.20;27.83;;;;;;;9.67;80.34;100136.72;5033521;28;20025;-47
2021/11/03 09:35:45;;;;;;;55.75;27.70;;;;;;;9.57;80.85;100139.72;5031081;28;20075;-47
2021/11/03 09:38:13;;;;;;;53.45;27.50;;;;;;;9.87;79.51;100140.41;5030896;28;20061;-50
2021/11/03 09:40:55;;;;;;;49.88;28.23;;;;;;;9.58;78.99;100136.00;5023687;28;20481;-48
2021/11/03 09:43:31;;;;;;;48.92;27.60;;;;;;;9.68;77.62;100130.31;5030275;28;20049;-46
2021/11/03 09:45:58;;;;;;;49.03;28.63;;;;;;;9.57;77.57;100136.22;5027535;28;20116;-46
2021/11/03 09:48:34;;;;;;;52.95;27.17;;;;;;;10.07;76.54;100142.41;5030577;28;20079;-47
2021/11/03 09:51:04;;;;;;;53.05;26.20;;;;;;;10.44;74.73;100146.59;5028335;28;20022;-45
2021/11/03 09:53:43;;;;;;;48.00;27.05;;;;;;;11.15;73.21;100138.22;5027106;28;20022;-47
2021/11/03 09:56:15;;;;;;;42.90;24.58;;;;;;;11.88;70.91;100140.22;5022050;28;20030;-47
2021/11/03 09:58:57;;;;;;;40.65;24.40;;;;;;;12.25;70.06;100138.72;5032022;28;20469;-47
2021/11/03 10:01:34;;;;;;;41.67;23.13;;;;;;;12.73;69.85;100129.47;5028070;28;20108;-46
2021/11/03 10:04:27;;;;;;;47.42;26.77;;;;;;;12.50;71.29;100135.34;5031306;28;20481;-46
2021/11/03 10:07:04;;;;;;;51.58;27.15;;;;;;;12.24;74.08;100136.22;5032186;28;20416;-47
2021/11/03 10:09:29;;;;;;;48.35;26.50;;;;;;;12.00;75.15;100135.03;5012924;28;20030;-49
2021/11/03 10:11:55;;;;;;;51.45;27.02;;;;;;;11.93;74.20;100132.34;5013804;28;20081;-48
2021/11/03 10:14:22;;;;;;;47.08;25.98;;;;;;;11.91;74.61;100137.09;5025986;28;20026;-48
2021/11/03 10:16:51;;;;;;;51.08;27.45;;;;;;;12.27;74.31;100143.94;5028345;28;20366;-49
2021/11/03 10:19:17;;;;;;;52.72;24.92;;;;;;;13.00;70.99;100145.56;5030055;28;20049;-47
2021/11/03 10:21:46;;;;;;;47.50;23.85;;;;;;;13.41;69.79;100142.47;5026247;28;20048;-46
2021/11/03 10:24:11;;;;;;;47.30;23.50;;;;;;;13.20;69.12;100151.69;5026958;28;20032;-47
2021/11/03 10:26:55;;;;;;;48.90;23.58;;;;;;;13.06;69.35;100144.69;5027195;28;20116;-48
2021/11/03 10:29:35;;;;;;;40.80;22.30;;;;;;;12.84;69.26;100153.09;5020522;28;20029;-50
2021/11/03 10:32:19;;;;;;;44.92;23.55;;;;;;;12.45;72.74;100154.91;5023309;28;20481;-48
2021/11/03 10:34:48;;;;;;;49.90;23.17;;;;;;;12.56;74.81;100150.72;5019866;28;20025;-49
2021/11/03 10:37:16;;;;;;;45.60;24.23;;;;;;;12.42;72.53;100149.91;5028946;28;20037;-48
2021/11/03 10:39:48;;;;;;;47.03;24.80;;;;;;;12.45;73.84;100157.59;5016641;28;20493;-46
2021/11/03 10:42:22;;;;;;;50.25;26.77;;;;;;;12.27;74.09;100146.63;5011602;28;20033;-48
2021/11/03 10:44:55;;;;;;;51.47;26.58;;;;;;;12.19;73.46;100153.06;5012579;28;20068;-48
2021/11/03 10:47:24;;;;;;;53.80;27.42;;;;;;;12.05;73.80;100146.84;5011320;28;20096;-46
2021/11/03 10:50:11;;;;;;;57.08;29.17;;;;;;;12.45;76.31;100144.09;5019803;28;20025;-49
2021/11/03 10:52:40;;;;;;;49.83;27.50;;;;;;;13.08;72.49;100151.53;5015271;28;20033;-49
2021/11/03 10:55:38;;;;;;;48.90;25.90;;;;;;;13.55;68.94;100151.31;5029053;28;20029;-46
2021/11/03 10:58:12;;;;;;;48.65;28.23;;;;;;;13.16;70.85;100145.06;5047388;28;20029;-49
2021/11/03 11:00:40;;;;;;;45.60;26.50;;;;;;;13.64;68.36;100141.91;5023128;28;20053;-48
2021/11/03 11:03:19;;;;;;;39.45;24.17;;;;;;;14.16;67.73;100145.19;5020896;28;20028;-49
2021/11/03 11:05:51;;;;;;;47.88;25.73;;;;;;;14.31;66.91;100144.03;5024877;28;20379;-48
2021/11/03 11:08:27;;;;;;;47.03;25.90;;;;;;;14.06;69.75;100136.78;5026314;28;20052;-47
2021/11/03 11:11:06;;;;;;;54.13;27.00;;;;;;;14.09;67.85;100136.31;5031271;28;20057;-50
2021/11/03 11:13:36;;;;;;;51.28;27.85;;;;;;;13.95;66.17;100138.28;5032400;28;20037;-49
2021/11/03 11:16:16;;;;;;;42.47;23.63;;;;;;;14.25;65.92;100127.63;5029079;28;20043;-48
2021/11/03 11:18:49;;;;;;;49.63;24.58;;;;;;;14.32;67.12;100132.94;5033992;28;20052;-51